createdAt,value
2023-02-25T00:00:39.506Z,37.50
2023-02-25T00:03:07.000Z,37.88
2023-02-25T00:05:34.449Z,36.50
2023-02-25T00:08:01.863Z,36.53
2023-02-25T00:10:29.669Z,38.38
2023-02-25T00:13:08.788Z,40.95
2023-02-25T00:15:43.573Z,40.13
2023-02-25T00:18:10.944Z,42.17
2023-02-25T00:20:41.141Z,42.45
2023-02-25T00:23:08.686Z,42.70
2023-02-25T00:25:36.218Z,39.75
2023-02-25T00:28:06.360Z,41.60
2023-02-25T00:30:34.930Z,40.13
2023-02-25T00:33:02.670Z,40.65
2023-02-25T00:35:30.062Z,39.90
2023-02-25T00:38:13.770Z,39.55
2023-02-25T00:40:42.665Z,39.70
2023-02-25T00:43:10.629Z,39.50
2023-02-25T00:45:40.326Z,41.03
2023-02-25T00:48:08.261Z,40.58
2023-02-25T00:50:39.610Z,38.42
2023-02-25T00:53:07.182Z,39.95
2023-02-25T00:55:34.642Z,39.08
2023-02-25T00:58:02.396Z,40.55
2023-02-25T01:00:31.465Z,40.13
2023-02-25T01:03:01.759Z,40.35
2023-02-25T01:05:29.208Z,41.20
2023-02-25T01:07:56.742Z,40.63
2023-02-25T01:10:24.222Z,40.85
2023-02-25T01:12:51.800Z,40.95
2023-02-25T01:15:19.265Z,40.08
2023-02-25T01:17:46.773Z,40.33
2023-02-25T01:20:14.325Z,39.50
2023-02-25T01:22:42.054Z,39.60
2023-02-25T01:25:14.115Z,40.05
2023-02-25T01:27:41.571Z,38.80
2023-02-25T01:30:09.315Z,39.47
2023-02-25T01:32:36.961Z,40.03
2023-02-25T01:35:04.770Z,38.13
2023-02-25T01:37:32.141Z,39.83
2023-02-25T01:39:59.658Z,39.30
2023-02-25T01:42:27.051Z,39.80
2023-02-25T01:45:09.858Z,37.85
2023-02-25T01:47:38.558Z,38.55
2023-02-25T01:50:06.716Z,36.08
2023-02-25T01:52:34.381Z,35.15
2023-02-25T01:55:01.836Z,35.10
2023-02-25T01:57:32.578Z,35.00
2023-02-25T02:00:00.133Z,33.15
2023-02-25T02:02:29.259Z,36.42
2023-02-25T02:04:56.824Z,39.03
2023-02-25T02:07:27.181Z,38.53
2023-02-25T02:09:57.539Z,34.65
2023-02-25T02:12:29.899Z,35.08
2023-02-25T02:14:58.480Z,31.60
2023-02-25T02:17:39.666Z,32.83
2023-02-25T02:20:36.301Z,29.75
2023-02-25T02:23:17.300Z,28.25
2023-02-25T02:25:54.953Z,31.75
2023-02-25T02:28:28.528Z,31.75
2023-02-25T02:30:56.071Z,31.33
2023-02-25T02:33:23.433Z,30.33
2023-02-25T02:35:57.238Z,27.63
2023-02-25T02:38:31.011Z,28.95
2023-02-25T02:41:04.442Z,27.42
2023-02-25T02:43:38.983Z,26.83
2023-02-25T02:46:09.410Z,26.80
2023-02-25T02:48:43.297Z,25.40
2023-02-25T02:51:18.465Z,26.42
2023-02-25T02:53:50.471Z,26.25
2023-02-25T02:56:19.624Z,25.25
2023-02-25T02:59:02.047Z,25.63
2023-02-25T03:01:33.153Z,26.05
2023-02-25T03:04:02.891Z,24.88
2023-02-25T03:06:39.600Z,24.58
2023-02-25T03:09:10.087Z,25.05
2023-02-25T03:11:37.550Z,25.55
2023-02-25T03:14:08.201Z,22.83
2023-02-25T03:16:45.299Z,22.90
2023-02-25T03:19:20.347Z,23.08
2023-02-25T03:21:55.318Z,23.10
2023-02-25T03:24:27.499Z,23.52
2023-02-25T03:26:55.028Z,23.00
2023-02-25T03:29:25.791Z,25.75
2023-02-25T03:32:07.330Z,28.55
2023-02-25T03:34:37.741Z,30.58
2023-02-25T03:37:07.771Z,30.52
2023-02-25T03:39:42.585Z,30.55
2023-02-25T03:42:12.552Z,31.33
2023-02-25T03:44:45.185Z,32.63
2023-02-25T03:47:13.669Z,31.23
2023-02-25T03:49:59.288Z,29.58
2023-02-25T03:52:27.863Z,27.88
2023-02-25T03:54:59.722Z,27.33
2023-02-25T03:57:35.224Z,27.23
2023-02-25T04:00:13.492Z,27.20
2023-02-25T04:02:40.924Z,26.63
2023-02-25T04:05:10.202Z,27.30
2023-02-25T04:07:37.898Z,27.50
2023-02-25T04:10:06.980Z,26.05
2023-02-25T04:12:34.929Z,28.38
2023-02-25T04:15:02.496Z,27.08
2023-02-25T04:17:30.095Z,26.73
2023-02-25T04:19:57.603Z,27.88
2023-02-25T04:22:25.038Z,29.08
2023-02-25T04:24:52.501Z,30.83
2023-02-25T04:27:20.187Z,32.13
2023-02-25T04:29:47.612Z,32.72
2023-02-25T04:32:15.150Z,31.25
2023-02-25T04:34:42.632Z,34.55
2023-02-25T04:37:10.188Z,35.00
2023-02-25T04:39:38.078Z,29.98
2023-02-25T04:42:07.219Z,26.40
2023-02-25T04:44:34.757Z,27.45
2023-02-25T04:47:02.163Z,26.42
2023-02-25T04:49:29.668Z,26.58
2023-02-25T04:51:57.180Z,27.58
2023-02-25T04:54:24.652Z,26.95
2023-02-25T04:56:52.039Z,25.05
2023-02-25T04:59:19.577Z,27.52
2023-02-25T05:01:47.193Z,27.70
2023-02-25T05:04:14.717Z,30.02
2023-02-25T05:06:42.157Z,34.40
2023-02-25T05:09:10.518Z,32.58
2023-02-25T05:11:38.039Z,33.42
2023-02-25T05:14:05.520Z,33.88
2023-02-25T05:16:32.999Z,33.13
2023-02-25T05:19:00.517Z,33.53
2023-02-25T05:21:29.345Z,34.25
2023-02-25T05:23:57.000Z,33.47
2023-02-25T05:26:25.543Z,31.52
2023-02-25T05:28:54.413Z,29.10
2023-02-25T05:31:22.105Z,29.02
2023-02-25T05:33:49.634Z,28.65
2023-02-25T05:36:17.845Z,25.20
2023-02-25T05:38:45.578Z,24.45
2023-02-25T05:41:13.532Z,28.00
2023-02-25T05:43:41.667Z,24.30
2023-02-25T05:46:11.987Z,23.73
2023-02-25T05:48:40.448Z,22.08
2023-02-25T05:51:15.116Z,21.35
2023-02-25T05:53:44.740Z,22.35
2023-02-25T05:56:14.340Z,21.52
2023-02-25T05:58:41.785Z,21.02
2023-02-25T06:01:11.511Z,22.15
2023-02-25T06:03:39.242Z,21.92
2023-02-25T06:06:07.485Z,20.10
2023-02-25T06:08:35.310Z,21.70
2023-02-25T06:11:04.181Z,22.92
2023-02-25T06:13:31.648Z,19.58
2023-02-25T06:15:59.064Z,25.50
2023-02-25T06:18:26.462Z,24.23
2023-02-25T06:20:54.991Z,24.17
2023-02-25T06:23:22.410Z,24.58
2023-02-25T06:25:49.895Z,25.00
2023-02-25T06:28:17.298Z,26.38
2023-02-25T06:30:44.726Z,25.85
2023-02-25T06:33:12.185Z,26.60
2023-02-25T06:35:39.735Z,28.40
2023-02-25T06:38:07.175Z,27.77
2023-02-25T06:40:34.620Z,29.55
2023-02-25T06:43:02.076Z,29.95
2023-02-25T06:45:29.539Z,29.08
2023-02-25T06:47:56.934Z,36.75
2023-02-25T06:50:24.455Z,37.53
2023-02-25T06:52:51.880Z,34.42
2023-02-25T06:55:19.348Z,33.45
2023-02-25T06:57:46.716Z,33.70
2023-02-25T07:00:14.661Z,33.20
2023-02-25T07:02:42.965Z,34.25
2023-02-25T07:05:10.547Z,35.85
2023-02-25T07:07:38.215Z,34.15
2023-02-25T07:10:06.087Z,34.13
2023-02-25T07:12:33.544Z,31.58
2023-02-25T07:15:01.553Z,31.88
2023-02-25T07:17:29.448Z,32.28
2023-02-25T07:19:57.054Z,30.45
2023-02-25T07:22:24.521Z,32.05
2023-02-25T07:24:52.073Z,30.92
2023-02-25T07:27:19.593Z,32.05
2023-02-25T07:29:47.003Z,33.15
2023-02-25T07:32:14.594Z,35.10
2023-02-25T07:34:42.266Z,40.00
2023-02-25T07:37:09.816Z,38.13
2023-02-25T07:39:37.243Z,37.95
2023-02-25T07:42:04.787Z,38.33
2023-02-25T07:44:35.228Z,39.40
2023-02-25T07:47:02.899Z,39.25
2023-02-25T07:49:30.353Z,36.75
2023-02-25T07:51:57.797Z,40.55
2023-02-25T07:54:25.175Z,37.17
2023-02-25T07:56:52.634Z,33.90
2023-02-25T07:59:20.175Z,34.50
2023-02-25T08:01:47.895Z,34.50
2023-02-25T08:04:15.388Z,26.38
2023-02-25T08:06:43.267Z,23.52
2023-02-25T08:09:12.439Z,20.90
2023-02-25T08:11:41.776Z,20.23
2023-02-25T08:14:09.258Z,22.73
2023-02-25T08:16:37.628Z,21.58
2023-02-25T08:19:05.885Z,21.48
2023-02-25T08:21:33.533Z,20.75
2023-02-25T08:24:00.965Z,19.67
2023-02-25T08:26:28.497Z,19.80
2023-02-25T08:28:57.625Z,19.13
2023-02-25T08:31:26.168Z,19.88
2023-02-25T08:33:54.034Z,19.80
2023-02-25T08:36:26.731Z,21.08
2023-02-25T08:38:55.168Z,20.98
2023-02-25T08:41:23.414Z,21.60
2023-02-25T08:43:52.159Z,20.33
2023-02-25T08:46:21.199Z,20.33
2023-02-25T08:48:50.073Z,20.13
2023-02-25T08:51:18.085Z,20.17
2023-02-25T08:53:45.678Z,19.25
2023-02-25T08:56:15.049Z,19.83
2023-02-25T08:58:42.947Z,20.60
2023-02-25T09:01:14.347Z,21.10
2023-02-25T09:03:52.546Z,18.45
2023-02-25T09:06:21.647Z,18.58
2023-02-25T09:08:49.205Z,17.17
2023-02-25T09:11:17.014Z,18.00
2023-02-25T09:13:44.417Z,17.77
2023-02-25T09:16:15.814Z,17.90
2023-02-25T09:18:44.049Z,18.15
2023-02-25T09:21:12.477Z,18.65
2023-02-25T09:23:39.953Z,18.35
2023-02-25T09:26:07.473Z,18.20
2023-02-25T09:28:34.978Z,18.33
2023-02-25T09:31:02.700Z,21.52
2023-02-25T09:33:32.069Z,18.23
2023-02-25T09:36:09.654Z,16.13
2023-02-25T09:38:37.730Z,19.45
2023-02-25T09:41:13.054Z,27.25
2023-02-25T09:43:42.642Z,26.08
2023-02-25T09:46:13.727Z,26.10
2023-02-25T09:48:51.522Z,26.38
2023-02-25T09:51:24.007Z,27.95
2023-02-25T09:54:01.893Z,28.58
2023-02-25T09:56:30.062Z,29.75
2023-02-25T09:59:00.473Z,28.65
2023-02-25T10:01:39.121Z,29.02
2023-02-25T10:04:15.374Z,29.30
2023-02-25T10:06:44.600Z,31.13
2023-02-25T10:09:12.029Z,29.58
2023-02-25T10:11:59.860Z,32.50
2023-02-25T10:14:28.109Z,32.08
2023-02-25T10:16:55.604Z,32.58
2023-02-25T10:19:41.554Z,32.70
2023-02-25T10:22:14.631Z,31.13
2023-02-25T10:24:45.954Z,33.30
2023-02-25T10:27:26.965Z,32.47
2023-02-25T10:30:00.399Z,30.52
2023-02-25T10:32:32.711Z,30.35
2023-02-25T10:35:13.067Z,28.88
2023-02-25T10:37:40.655Z,30.13
2023-02-25T10:40:11.407Z,30.63
2023-02-25T10:42:39.217Z,29.42
2023-02-25T10:45:13.786Z,31.27
2023-02-25T10:47:43.583Z,32.85
2023-02-25T10:50:17.101Z,34.45
2023-02-25T10:53:04.636Z,33.13
2023-02-25T10:55:52.227Z,44.15
2023-02-25T10:58:22.707Z,32.33
2023-02-25T11:00:58.769Z,30.23
2023-02-25T11:03:27.845Z,32.25
2023-02-25T11:06:08.204Z,33.33
2023-02-25T11:08:36.943Z,32.20
2023-02-25T11:11:10.318Z,28.67
2023-02-25T11:13:38.745Z,28.38
2023-02-25T11:16:14.735Z,30.92
2023-02-25T11:18:43.428Z,28.20
2023-02-25T11:21:15.484Z,28.70
2023-02-25T11:23:43.277Z,28.67
2023-02-25T11:26:16.221Z,30.23
2023-02-25T11:28:50.537Z,28.92
2023-02-25T11:31:20.219Z,33.20
2023-02-25T11:33:52.837Z,28.38
2023-02-25T11:36:24.923Z,27.83
2023-02-25T11:39:04.985Z,30.00
2023-02-25T11:41:33.259Z,27.80
2023-02-25T11:44:12.344Z,28.23
2023-02-25T11:46:40.211Z,28.13
2023-02-25T11:49:10.987Z,26.92
2023-02-25T11:51:47.833Z,28.98
2023-02-25T11:54:36.307Z,29.63
2023-02-25T11:57:10.107Z,27.70
2023-02-25T11:59:40.863Z,27.13
2023-02-25T12:02:26.577Z,25.48
2023-02-25T12:04:58.127Z,26.40
2023-02-25T12:07:32.363Z,26.30
2023-02-25T12:10:19.394Z,25.75
2023-02-25T12:13:04.575Z,24.13
2023-02-25T12:15:56.627Z,24.40
2023-02-25T12:18:36.533Z,24.20
2023-02-25T12:21:23.121Z,24.08
2023-02-25T12:23:57.238Z,22.63
2023-02-25T12:26:44.096Z,24.15
2023-02-25T12:29:32.326Z,23.08
2023-02-25T12:32:00.326Z,21.70
2023-02-25T12:34:57.423Z,21.50
2023-02-25T12:37:49.771Z,22.35
2023-02-25T12:40:20.915Z,23.75
2023-02-25T12:42:49.442Z,23.25
2023-02-25T12:45:29.512Z,22.88
2023-02-25T12:48:27.789Z,24.75
2023-02-25T12:50:58.093Z,23.10
2023-02-25T12:54:04.256Z,24.42
2023-02-25T12:56:41.516Z,22.65
2023-02-25T12:59:14.983Z,23.80
2023-02-25T13:01:45.218Z,24.27
2023-02-25T13:04:29.542Z,23.50
2023-02-25T13:07:15.668Z,25.40
2023-02-25T13:09:45.973Z,23.70
2023-02-25T13:12:14.263Z,22.92
2023-02-25T13:14:55.752Z,23.58
2023-02-25T13:17:41.860Z,22.55
2023-02-25T13:20:27.905Z,23.95
2023-02-25T13:23:07.486Z,25.67
2023-02-25T13:25:41.138Z,24.95
2023-02-25T13:28:17.811Z,22.42
2023-02-25T13:30:58.201Z,21.15
2023-02-25T13:33:37.772Z,23.33
2023-02-25T13:36:11.295Z,21.98
2023-02-25T13:38:54.940Z,22.00
2023-02-25T13:41:22.780Z,22.83
2023-02-25T13:44:08.681Z,26.13
2023-02-25T13:46:39.305Z,24.55
2023-02-25T13:49:25.213Z,24.00
2023-02-25T13:51:59.905Z,24.65
2023-02-25T13:54:46.362Z,22.85
2023-02-25T13:57:36.034Z,22.95
2023-02-25T14:00:07.229Z,22.65
2023-02-25T14:02:58.379Z,21.75
2023-02-25T14:05:28.733Z,21.50
2023-02-25T14:07:56.867Z,22.33
2023-02-25T14:10:24.281Z,21.70
2023-02-25T14:13:05.596Z,21.42
2023-02-25T14:15:48.507Z,21.30
2023-02-25T14:18:22.244Z,20.63
2023-02-25T14:20:58.874Z,21.98
2023-02-25T14:23:39.273Z,24.45
2023-02-25T14:26:20.198Z,24.13
2023-02-25T14:28:56.269Z,45.28
2023-02-25T14:31:45.909Z,31.40
2023-02-25T14:34:28.759Z,30.05
2023-02-25T14:36:56.313Z,23.50
2023-02-25T14:39:27.642Z,24.73
2023-02-25T14:41:55.163Z,28.15
2023-02-25T14:44:48.701Z,27.50
2023-02-25T14:47:39.533Z,29.58
2023-02-25T14:50:13.593Z,28.98
2023-02-25T14:53:13.541Z,30.48
2023-02-25T14:56:10.092Z,28.58
2023-02-25T14:58:42.434Z,26.52
2023-02-25T15:01:12.719Z,31.85
2023-02-25T15:03:52.485Z,28.17
2023-02-25T15:06:32.409Z,35.38
2023-02-25T15:09:20.918Z,31.10
2023-02-25T15:11:57.327Z,28.67
2023-02-25T15:14:36.956Z,35.42
2023-02-25T15:17:23.298Z,31.00
2023-02-25T15:20:09.851Z,33.75
2023-02-25T15:22:37.601Z,33.10
2023-02-25T15:25:20.364Z,34.13
2023-02-25T15:27:49.430Z,35.65
2023-02-25T15:30:21.990Z,39.67
2023-02-25T15:32:55.332Z,43.78
2023-02-25T15:35:25.894Z,44.05
2023-02-25T15:37:53.501Z,39.60
2023-02-25T15:40:22.164Z,39.40
2023-02-25T15:42:56.506Z,40.00
2023-02-25T15:45:30.710Z,40.77
2023-02-25T15:48:07.653Z,41.00
2023-02-25T15:50:47.116Z,46.53
2023-02-25T15:53:24.760Z,42.78
2023-02-25T15:55:52.382Z,43.85
2023-02-25T15:58:25.824Z,43.78
2023-02-25T16:00:57.878Z,46.50
2023-02-25T16:03:38.489Z,50.22
2023-02-25T16:06:08.859Z,46.05
2023-02-25T16:08:51.930Z,43.33
2023-02-25T16:11:34.825Z,41.75
2023-02-25T16:14:05.425Z,39.00
2023-02-25T16:16:33.602Z,39.08
2023-02-25T16:19:02.426Z,37.95
2023-02-25T16:21:45.151Z,36.28
2023-02-25T16:24:13.844Z,37.40
2023-02-25T16:26:47.779Z,44.88
2023-02-25T16:29:21.291Z,49.08
2023-02-25T16:32:07.765Z,47.67
2023-02-25T16:34:40.219Z,49.47
2023-02-25T16:37:17.782Z,42.03
2023-02-25T16:39:45.436Z,38.40
2023-02-25T16:42:14.090Z,39.33
2023-02-25T16:44:42.555Z,37.75
2023-02-25T16:47:25.437Z,40.15
2023-02-25T16:49:53.980Z,43.53
2023-02-25T16:52:24.484Z,43.17
2023-02-25T16:54:55.550Z,37.65
2023-02-25T16:57:24.887Z,33.75
2023-02-25T17:00:06.122Z,32.72
2023-02-25T17:02:43.181Z,35.78
2023-02-25T17:05:22.649Z,40.85
2023-02-25T17:07:55.236Z,41.10
2023-02-25T17:10:27.053Z,42.25
2023-02-25T17:12:55.022Z,42.00
2023-02-25T17:15:25.095Z,42.50
2023-02-25T17:17:56.506Z,43.05
2023-02-25T17:20:27.684Z,45.92
2023-02-25T17:22:56.397Z,48.35
2023-02-25T17:25:27.452Z,46.60
2023-02-25T17:27:57.697Z,47.55
2023-02-25T17:30:40.855Z,50.95
2023-02-25T17:33:18.557Z,53.47
2023-02-25T17:35:48.147Z,54.83
2023-02-25T17:38:20.334Z,58.03
2023-02-25T17:40:48.229Z,61.70
2023-02-25T17:43:17.850Z,62.78
2023-02-25T17:45:47.206Z,64.25
2023-02-25T17:48:19.281Z,61.15
2023-02-25T17:50:53.253Z,60.88
2023-02-25T17:53:40.986Z,52.97
2023-02-25T17:56:11.282Z,52.65
2023-02-25T17:58:38.996Z,56.13
2023-02-25T18:01:09.249Z,58.85
2023-02-25T18:03:44.836Z,54.10
2023-02-25T18:06:31.095Z,56.03
2023-02-25T18:09:02.704Z,57.63
2023-02-25T18:11:37.965Z,56.47
2023-02-25T18:16:33.552Z,55.60
2023-02-25T18:19:01.480Z,57.38
2023-02-25T18:21:29.578Z,57.05
2023-02-25T18:23:57.289Z,53.78
2023-02-25T18:26:26.440Z,59.10
2023-02-25T18:28:57.431Z,60.85
2023-02-25T18:31:25.507Z,65.53
2023-02-25T18:33:53.899Z,63.80
2023-02-25T18:36:26.425Z,67.65
2023-02-25T18:38:55.065Z,78.45
2023-02-25T18:41:22.531Z,84.13
2023-02-25T18:43:50.885Z,97.55
2023-02-25T18:46:18.393Z,97.53
2023-02-25T18:48:45.910Z,90.43
2023-02-25T18:51:17.679Z,78.53
2023-02-25T18:53:45.351Z,66.30
2023-02-25T18:56:17.112Z,62.95
2023-02-25T18:58:45.644Z,57.90
2023-02-25T19:01:24.115Z,54.55
2023-02-25T19:03:52.150Z,55.85
2023-02-25T19:06:19.916Z,60.55
2023-02-25T19:08:47.494Z,59.92
2023-02-25T19:11:25.440Z,59.85
2023-02-25T19:13:53.110Z,57.92
2023-02-25T19:16:21.093Z,59.78
2023-02-25T19:18:48.784Z,59.28
2023-02-25T19:21:18.459Z,56.75
2023-02-25T19:23:46.163Z,58.40
2023-02-25T19:26:16.063Z,57.15
2023-02-25T19:28:43.798Z,57.30
2023-02-25T19:31:12.481Z,58.47
2023-02-25T19:33:40.142Z,65.35
2023-02-25T19:36:08.956Z,66.13
2023-02-25T19:38:36.541Z,63.25
2023-02-25T19:41:06.599Z,62.28
2023-02-25T19:43:34.366Z,67.85
2023-02-25T19:46:02.624Z,70.03
2023-02-25T19:48:30.169Z,78.18
2023-02-25T19:50:57.743Z,76.10
2023-02-25T19:53:26.195Z,78.63
2023-02-25T19:55:56.411Z,77.63
2023-02-25T19:58:24.886Z,71.60
2023-02-25T20:00:52.461Z,68.50
2023-02-25T20:03:20.040Z,61.90
2023-02-25T20:05:47.490Z,59.60
2023-02-25T20:08:15.020Z,59.45
2023-02-25T20:10:44.008Z,58.05
2023-02-25T20:13:11.643Z,55.63
2023-02-25T20:15:39.251Z,56.13
2023-02-25T20:18:06.798Z,47.38
2023-02-25T20:20:34.504Z,44.70
2023-02-25T20:23:01.961Z,37.10
2023-02-25T20:25:29.412Z,36.78
2023-02-25T20:27:56.841Z,36.75
2023-02-25T20:30:24.413Z,31.83
2023-02-25T20:32:51.944Z,29.13
2023-02-25T20:35:20.962Z,29.40
2023-02-25T20:37:53.901Z,37.80
2023-02-25T20:40:21.400Z,44.13
2023-02-25T20:42:48.905Z,51.92
2023-02-25T20:45:16.870Z,50.28
2023-02-25T20:47:44.498Z,77.18
2023-02-25T20:50:15.371Z,76.50
2023-02-25T20:52:43.184Z,66.03
2023-02-25T20:55:10.958Z,60.42
2023-02-25T20:57:38.560Z,39.58
2023-02-25T21:00:11.662Z,32.90
2023-02-25T21:02:39.143Z,21.45
2023-02-25T21:05:06.734Z,27.40
2023-02-25T21:07:34.236Z,21.00
2023-02-25T21:10:01.652Z,20.00
2023-02-25T21:12:29.413Z,24.67
2023-02-25T21:14:56.881Z,28.42
2023-02-25T21:17:24.393Z,31.88
2023-02-25T21:19:51.942Z,32.53
2023-02-25T21:22:19.368Z,29.52
2023-02-25T21:24:46.876Z,34.13
2023-02-25T21:27:14.547Z,38.67
2023-02-25T21:29:42.010Z,40.15
2023-02-25T21:32:09.460Z,39.22
2023-02-25T21:34:37.259Z,42.55
2023-02-25T21:37:04.718Z,42.90
2023-02-25T21:39:32.178Z,43.33
2023-02-25T21:41:59.601Z,41.13
2023-02-25T21:44:27.304Z,39.92
2023-02-25T21:46:54.800Z,40.92
2023-02-25T21:49:22.323Z,41.22
2023-02-25T21:51:51.171Z,40.92
2023-02-25T21:54:18.624Z,41.40
2023-02-25T21:56:46.030Z,41.20
2023-02-25T21:59:13.797Z,46.08
2023-02-25T22:01:42.268Z,44.13
2023-02-25T22:04:09.968Z,47.30
2023-02-25T22:06:38.057Z,50.28
2023-02-25T22:09:06.913Z,40.95
2023-02-25T22:11:35.196Z,43.88
2023-02-25T22:14:03.796Z,43.05
2023-02-25T22:16:31.218Z,43.58
2023-02-25T22:18:59.134Z,39.63
2023-02-25T22:21:28.057Z,39.10
2023-02-25T22:23:56.710Z,39.00
2023-02-25T22:26:25.450Z,37.60
2023-02-25T22:29:00.441Z,38.47
2023-02-25T22:31:28.494Z,37.35
2023-02-25T22:33:56.695Z,36.97
2023-02-25T22:36:24.434Z,38.05
2023-02-25T22:38:52.157Z,37.17
2023-02-25T22:41:24.758Z,32.88
2023-02-25T22:43:52.768Z,34.03
2023-02-25T22:46:24.618Z,32.00
2023-02-25T22:48:52.897Z,31.00
2023-02-25T22:51:22.425Z,29.50
2023-02-25T22:53:49.914Z,29.27
2023-02-25T22:56:17.343Z,28.65
2023-02-25T22:58:44.968Z,28.02
2023-02-25T23:01:13.402Z,26.48
2023-02-25T23:03:43.719Z,25.25
2023-02-25T23:06:11.928Z,27.25
2023-02-25T23:08:39.627Z,25.45
2023-02-25T23:11:08.543Z,26.05
2023-02-25T23:13:36.009Z,26.08
2023-02-25T23:16:03.503Z,26.23
2023-02-25T23:18:33.594Z,26.02
2023-02-25T23:21:05.638Z,27.10
2023-02-25T23:23:38.765Z,26.40
2023-02-25T23:26:11.661Z,27.30
2023-02-25T23:28:39.098Z,24.73
2023-02-25T23:31:10.382Z,25.40
2023-02-25T23:33:37.920Z,25.85
2023-02-25T23:36:06.563Z,27.27
2023-02-25T23:38:34.120Z,26.25
2023-02-25T23:41:01.622Z,24.38
2023-02-25T23:43:29.651Z,24.65
2023-02-25T23:45:57.114Z,23.90
2023-02-25T23:48:24.901Z,24.45
2023-02-25T23:50:52.517Z,22.63
2023-02-25T23:53:20.185Z,24.17
2023-02-25T23:55:47.619Z,26.05
2023-02-25T23:58:15.110Z,25.50
